Time;durP1;ratioP1;P1;durP2;ratioP2;P2;SDS_P1;SDS_P2;PMS_P1;PMS_P2;Temp;Humidity;BMP_temperature;BMP_pressure;BME280_temperature;BME280_humidity;BME280_pressure;Samples;Min_cycle;Max_cycle;Signal;HPM_P1;HPM_P2
2022/04/07 00:02:57;;;;;;;9.10;6.00;;;;;;;8.53;72.16;98042.68;215508;1277;141287;-69
2022/04/07 00:08:00;;;;;;;12.20;5.80;;;;;;;8.53;72.01;98042.73;215006;1277;139684;-66
2022/04/07 00:13:04;;;;;;;8.40;6.00;;;;;;;8.54;72.05;98035.30;215589;1279;139842;-70
2022/04/07 00:18:07;;;;;;;9.00;6.20;;;;;;;8.59;72.10;98041.72;215369;1277;139634;-67
2022/04/07 00:23:09;;;;;;;8.60;6.20;;;;;;;8.62;71.95;98036.84;215770;1277;140599;-67
2022/04/07 00:28:12;;;;;;;9.00;7.40;;;;;;;8.67;71.99;98031.44;214038;1277;140165;-66
2022/04/07 00:33:15;;;;;;;9.30;6.40;;;;;;;8.71;71.66;98027.98;214716;1277;139788;-67
2022/04/07 00:38:18;;;;;;;9.60;6.30;;;;;;;8.74;71.89;98024.76;213608;1277;141019;-64
2022/04/07 00:43:31;;;;;;;8.00;5.40;;;;;;;8.80;72.07;98019.18;213703;1277;140863;-64
2022/04/07 00:48:35;;;;;;;8.40;6.00;;;;;;;8.83;71.81;98011.54;213939;1277;140127;-65
2022/04/07 00:53:40;;;;;;;9.60;6.00;;;;;;;8.86;71.58;98004.83;213162;1277;140697;-65
2022/04/07 00:58:47;;;;;;;6.70;5.30;;;;;;;8.87;71.53;98004.45;213339;1277;140591;-66
2022/04/07 01:03:51;;;;;;;8.00;4.90;;;;;;;8.84;71.69;97995.44;214119;1277;140721;-66
2022/04/07 01:08:55;;;;;;;10.10;6.30;;;;;;;8.84;71.39;97987.73;213917;1277;141698;-67
2022/04/07 01:13:58;;;;;;;10.80;5.70;;;;;;;8.85;71.24;97985.70;213386;1277;139990;-66
2022/04/07 01:19:02;;;;;;;7.70;4.90;;;;;;;8.85;71.45;97982.41;213677;1277;141409;-66
2022/04/07 01:24:10;;;;;;;6.80;5.30;;;;;;;8.80;71.15;97975.51;213639;1279;139570;-64
2022/04/07 01:29:16;;;;;;;7.00;6.20;;;;;;;8.75;71.09;97971.79;213707;1277;140699;-65
2022/04/07 01:34:20;;;;;;;9.80;5.30;;;;;;;8.73;71.21;97975.34;213938;1277;140776;-69
2022/04/07 01:39:26;;;;;;;6.90;5.40;;;;;;;8.72;71.14;97974.65;213544;1277;140307;-68
2022/04/07 01:44:30;;;;;;;5.00;4.50;;;;;;;8.74;71.08;97966.58;213054;1277;140309;-67
2022/04/07 01:49:35;;;;;;;18.30;5.10;;;;;;;8.73;71.22;97964.39;214514;1277;140041;-67
2022/04/07 01:54:43;;;;;;;7.10;4.20;;;;;;;8.70;70.97;97959.23;213567;1277;140630;-67
2022/04/07 01:59:46;;;;;;;6.60;5.10;;;;;;;8.65;70.99;97960.30;215098;1277;140973;-68
2022/04/07 02:05:03;;;;;;;5.60;4.80;;;;;;;8.61;70.93;97960.23;215657;1277;141002;-68
2022/04/07 02:10:11;;;;;;;5.90;5.30;;;;;;;8.56;70.88;97954.93;215710;1275;141261;-71
2022/04/07 02:15:15;;;;;;;7.80;6.00;;;;;;;8.49;70.80;97948.13;215539;1277;140818;-69
2022/04/07 02:20:18;;;;;;;6.80;5.30;;;;;;;8.42;70.78;97946.89;215409;1277;140479;-68
2022/04/07 02:25:23;;;;;;;4.90;4.10;;;;;;;8.38;70.62;97945.67;215429;1279;141060;-69
2022/04/07 02:30:26;;;;;;;6.70;5.00;;;;;;;8.34;70.62;97938.97;214650;1278;140717;-67
2022/04/07 02:35:31;;;;;;;8.10;5.70;;;;;;;8.20;70.62;97937.40;212876;1279;140104;-66
2022/04/07 02:40:34;;;;;;;5.70;5.00;;;;;;;8.12;70.88;97934.14;213909;1278;140356;-67
2022/04/07 02:45:36;;;;;;;6.80;6.10;;;;;;;8.05;71.06;97930.24;214788;1278;141340;-67
2022/04/07 02:50:39;;;;;;;7.70;5.40;;;;;;;8.01;71.23;97932.67;213830;1279;142426;-67
2022/04/07 02:55:42;;;;;;;9.50;5.90;;;;;;;7.95;71.21;97928.90;213469;1277;141252;-65
2022/04/07 03:00:44;;;;;;;8.50;4.90;;;;;;;7.87;71.41;97926.61;213397;1278;141573;-68
2022/04/07 03:05:47;;;;;;;8.30;6.40;;;;;;;7.76;71.36;97926.55;213341;1278;141736;-66
2022/04/07 03:10:49;;;;;;;8.40;6.00;;;;;;;7.65;71.59;97922.23;213056;1277;141605;-65
2022/04/07 03:15:54;;;;;;;7.20;5.30;;;;;;;7.57;71.92;97922.10;213419;1278;140785;-68
2022/04/07 03:20:58;;;;;;;6.70;5.40;;;;;;;7.46;71.72;97921.51;213323;1277;143506;-67
2022/04/07 03:26:02;;;;;;;9.30;6.10;;;;;;;7.29;71.63;97921.38;213172;1276;140751;-67
2022/04/07 03:31:04;;;;;;;9.00;6.20;;;;;;;7.11;71.62;97924.40;214090;1277;143151;-67
2022/04/07 03:36:07;;;;;;;7.30;6.00;;;;;;;6.98;71.85;97925.98;213043;1277;142665;-66
2022/04/07 03:41:10;;;;;;;9.60;6.70;;;;;;;6.85;72.04;97921.59;213766;1277;140963;-66
2022/04/07 03:46:16;;;;;;;10.50;6.10;;;;;;;6.73;71.99;97920.87;214025;1278;143313;-68
2022/04/07 03:51:20;;;;;;;8.90;6.60;;;;;;;6.66;72.47;97925.33;213586;1278;141198;-67
2022/04/07 03:56:23;;;;;;;10.50;6.60;;;;;;;6.62;72.56;97920.11;213281;1277;142351;-67
2022/04/07 04:01:29;;;;;;;7.80;7.00;;;;;;;6.61;72.90;97916.91;213063;1278;154531;-67
2022/04/07 04:06:33;;;;;;;10.60;7.10;;;;;;;6.58;72.84;97917.64;214677;1277;141206;-67
2022/04/07 04:11:36;;;;;;;7.00;6.20;;;;;;;6.54;72.89;97913.46;213980;1277;142325;-66
2022/04/07 04:16:41;;;;;;;7.80;5.70;;;;;;;6.57;73.71;97911.16;215453;1278;141735;-66
2022/04/07 04:21:44;;;;;;;7.90;5.60;;;;;;;6.67;73.57;97912.63;215471;1278;141250;-66
2022/04/07 04:26:48;;;;;;;7.30;6.20;;;;;;;6.82;73.62;97907.33;214473;1277;141179;-66
2022/04/07 04:31:50;;;;;;;5.90;5.20;;;;;;;7.01;73.60;97907.82;214283;1277;139881;-66
2022/04/07 04:36:55;;;;;;;7.50;4.60;;;;;;;7.17;73.63;97904.46;214586;1277;140917;-70
2022/04/07 04:41:57;;;;;;;7.90;5.70;;;;;;;7.34;73.57;97902.84;215041;1278;142403;-69
2022/04/07 04:47:00;;;;;;;8.00;6.20;;;;;;;7.48;72.91;97903.65;213675;1279;141979;-69
2022/04/07 04:52:04;;;;;;;9.50;5.50;;;;;;;7.60;73.21;97901.84;213703;1278;153072;-67
2022/04/07 04:57:07;;;;;;;5.90;4.70;;;;;;;7.78;73.01;97903.06;213048;1278;143058;-68
2022/04/07 05:02:10;;;;;;;8.00;5.90;;;;;;;7.95;72.97;97900.62;214048;1278;140224;-70
2022/04/07 05:07:13;;;;;;;8.50;5.50;;;;;;;8.12;73.06;97901.17;214222;1278;141109;-69
2022/04/07 05:12:16;;;;;;;7.50;5.00;;;;;;;8.28;72.78;97897.89;212993;1279;140392;-66
2022/04/07 05:17:19;;;;;;;6.90;6.00;;;;;;;8.42;73.05;97900.86;212900;1277;141572;-65
2022/04/07 05:22:22;;;;;;;7.60;4.90;;;;;;;8.60;73.04;97894.59;213091;1277;142448;-67
2022/04/07 05:27:28;;;;;;;8.20;5.50;;;;;;;8.70;72.55;97894.96;213244;1277;163637;-66
2022/04/07 05:32:36;;;;;;;13.40;6.50;;;;;;;8.83;72.65;97895.17;213896;1278;141342;-66
2022/04/07 05:37:40;;;;;;;6.70;6.00;;;;;;;8.98;72.48;97890.29;213638;1278;141368;-66
2022/04/07 05:42:42;;;;;;;10.80;6.00;;;;;;;9.23;72.39;97891.45;213735;1278;153841;-67
2022/04/07 05:47:45;;;;;;;6.10;5.50;;;;;;;9.52;72.09;97889.27;214086;1277;141080;-69
2022/04/07 05:52:48;;;;;;;8.00;5.10;;;;;;;9.77;71.77;97887.23;213261;1278;140007;-70
2022/04/07 05:57:51;;;;;;;8.70;7.00;;;;;;;10.01;71.24;97890.08;214329;1277;139905;-68
2022/04/07 06:02:53;;;;;;;9.60;6.40;;;;;;;10.26;70.96;97895.37;213439;1277;140204;-72
2022/04/07 06:08:01;;;;;;;10.10;5.80;;;;;;;10.61;70.69;97884.88;214410;1277;140906;-73
2022/04/07 06:13:04;;;;;;;;;;;;;;;10.98;70.45;97879.09;214320;1277;140076;-71
2022/04/07 06:18:07;;;;;;;10.80;5.90;;;;;;;11.23;69.98;97874.08;213951;1278;126877;-67
2022/04/07 06:23:12;;;;;;;5.30;4.80;;;;;;;11.53;69.72;97873.77;214218;1278;141560;-67
2022/04/07 06:28:16;;;;;;;6.70;4.80;;;;;;;11.89;69.17;97868.41;214838;1279;141492;-68
2022/04/07 06:33:18;;;;;;;9.80;4.80;;;;;;;12.09;68.65;97871.17;215392;1278;139478;-69
2022/04/07 06:38:21;;;;;;;7.10;6.00;;;;;;;12.24;68.37;97869.92;215152;1279;139978;-71
2022/04/07 06:43:23;;;;;;;7.70;5.10;;;;;;;12.36;67.77;97867.45;214044;1279;139781;-69
2022/04/07 06:48:25;;;;;;;6.30;5.20;;;;;;;12.44;67.42;97862.67;214464;1279;139903;-67
2022/04/07 06:53:28;;;;;;;6.10;5.00;;;;;;;12.46;66.73;97858.10;215458;1278;140378;-67
2022/04/07 06:58:30;;;;;;;5.30;4.60;;;;;;;12.44;66.50;97860.59;213345;1278;164024;-68
2022/04/07 07:03:32;;;;;;;4.80;3.60;;;;;;;12.50;66.31;97855.27;214225;1278;141329;-67
2022/04/07 07:08:35;;;;;;;5.60;4.10;;;;;;;12.50;66.04;97854.73;214544;1277;141183;-68
2022/04/07 07:13:37;;;;;;;7.20;5.00;;;;;;;12.54;65.81;97854.96;214360;1277;139305;-67
2022/04/07 07:18:42;;;;;;;5.60;4.20;;;;;;;12.72;65.64;97848.45;213305;1278;140558;-68
2022/04/07 07:23:45;;;;;;;5.50;4.50;;;;;;;13.33;65.27;97842.41;213894;1278;140267;-69
2022/04/07 07:28:48;;;;;;;8.40;4.60;;;;;;;14.35;65.00;97834.15;213289;1278;139996;-71
2022/04/07 07:33:51;;;;;;;5.70;5.20;;;;;;;15.46;64.55;97825.48;212744;1278;140108;-68
2022/04/07 07:38:56;;;;;;;4.60;3.60;;;;;;;16.19;63.21;97819.88;213715;1278;140456;-67
2022/04/07 07:43:59;;;;;;;7.00;2.90;;;;;;;16.68;62.12;97817.52;213320;1277;140007;-69
2022/04/07 07:49:05;;;;;;;3.40;3.10;;;;;;;17.16;60.80;97813.09;213569;1278;139692;-69
2022/04/07 07:54:09;;;;;;;4.60;3.30;;;;;;;17.46;59.61;97819.05;214164;1278;139399;-68
2022/04/07 07:59:11;;;;;;;3.60;3.10;;;;;;;17.63;58.82;97808.41;214218;1277;139184;-69
2022/04/07 08:04:15;;;;;;;4.40;2.90;;;;;;;17.81;58.03;97802.48;213532;1277;139445;-67
2022/04/07 08:09:20;;;;;;;8.00;4.10;;;;;;;17.96;57.45;97798.20;213838;1279;141540;-69
2022/04/07 08:14:23;;;;;;;6.50;3.20;;;;;;;18.05;56.70;97792.17;214518;1278;139371;-68
2022/04/07 08:19:26;;;;;;;14.40;4.00;;;;;;;17.82;55.68;97793.20;214186;1277;139554;-69
2022/04/07 08:24:28;;;;;;;4.90;3.30;;;;;;;17.59;55.70;97792.55;215495;1277;140638;-69
2022/04/07 08:29:31;;;;;;;5.90;3.50;;;;;;;17.48;55.27;97786.18;215813;1277;141839;-72
2022/04/07 08:34:35;;;;;;;5.70;4.10;;;;;;;17.52;55.57;97788.12;215459;1277;141429;-71
2022/04/07 08:39:37;;;;;;;4.50;4.00;;;;;;;17.86;55.74;97785.25;215500;1278;141173;-69
2022/04/07 08:44:40;;;;;;;6.70;4.70;;;;;;;18.12;54.92;97784.98;215035;1277;140758;-72
2022/04/07 08:49:43;;;;;;;6.80;3.60;;;;;;;18.18;54.91;97787.88;214472;1277;140785;-77
2022/04/07 08:54:46;;;;;;;6.70;4.20;;;;;;;18.23;54.16;97777.42;213630;1278;140074;-75
2022/04/07 08:59:48;;;;;;;4.70;4.20;;;;;;;18.05;53.72;97772.16;213562;1279;142114;-76
2022/04/07 09:04:58;;;;;;;7.10;3.30;;;;;;;18.07;53.70;97766.47;214558;1277;140072;-76
2022/04/07 09:10:04;;;;;;;16.10;3.70;;;;;;;18.13;53.03;97757.57;213531;1278;139507;-75
2022/04/07 09:15:07;;;;;;;3.60;3.30;;;;;;;18.17;53.01;97745.48;213859;1278;139799;-76
2022/04/07 09:20:15;;;;;;;3.10;2.90;;;;;;;18.22;52.87;97739.34;214169;1278;139742;-72
2022/04/07 09:25:18;;;;;;;2.90;2.50;;;;;;;18.15;52.27;97740.33;213625;1278;139396;-76
2022/04/07 09:30:24;;;;;;;2.90;2.10;;;;;;;18.14;52.41;97730.65;213896;1277;139316;-73
2022/04/07 09:35:27;;;;;;;2.60;2.40;;;;;;;18.24;52.00;97720.70;213003;1279;140349;-75
2022/04/07 09:40:30;;;;;;;3.00;2.10;;;;;;;18.17;51.32;97723.65;213630;1277;140297;-68
2022/04/07 09:45:43;;;;;;;3.80;2.20;;;;;;;18.21;51.16;97708.06;213687;1277;141494;-68
2022/04/07 09:51:10;;;;;;;4.00;2.60;;;;;;;18.13;50.96;97699.95;213132;1277;141263;-68
2022/04/07 09:56:13;;;;;;;2.80;1.90;;;;;;;18.24;50.94;97685.77;213154;1280;140038;-71
2022/04/07 10:01:16;;;;;;;3.00;2.00;;;;;;;18.38;51.05;97677.21;213880;1277;141263;-70
2022/04/07 10:06:20;;;;;;;2.70;2.40;;;;;;;18.56;50.75;97668.00;214541;1277;139864;-71
2022/04/07 10:11:22;;;;;;;1.70;1.60;;;;;;;18.46;50.23;97658.84;214107;1280;139526;-72
2022/04/07 10:16:32;;;;;;;2.10;1.90;;;;;;;18.50;50.37;97643.69;214761;1277;418188;-72
2022/04/07 10:21:44;;;;;;;3.20;2.10;;;;;;;18.55;49.92;97631.98;214071;1276;139577;-70
2022/04/07 10:26:48;;;;;;;2.90;2.20;;;;;;;18.40;49.81;97621.02;214901;1277;140659;-71
2022/04/07 10:32:12;;;;;;;1.80;1.60;;;;;;;18.65;49.73;97619.98;215841;1277;141119;-72
2022/04/07 10:37:28;;;;;;;1.90;1.80;;;;;;;18.59;49.16;97610.52;215614;1277;142569;-70
2022/04/07 10:43:04;;;;;;;2.80;1.90;;;;;;;18.42;49.01;97608.05;215589;1277;141120;-70
2022/04/07 10:48:31;;;;;;;2.30;1.80;;;;;;;18.06;48.82;97609.89;214987;1280;140704;-69
2022/04/07 10:53:36;;;;;;;2.10;1.90;;;;;;;17.78;49.08;97599.80;213529;1279;141149;-71
2022/04/07 10:58:46;;;;;;;1.90;1.70;;;;;;;17.97;49.18;97585.80;214141;1277;140053;-70
2022/04/07 11:04:16;;;;;;;2.40;1.60;;;;;;;18.03;49.37;97583.85;214711;1277;139995;-69
2022/04/07 11:09:22;;;;;;;1.20;1.20;;;;;;;18.48;49.44;97567.15;213583;1279;140169;-69
2022/04/07 11:14:28;;;;;;;1.30;1.20;;;;;;;18.27;48.54;97555.48;212845;1277;142300;-68
2022/04/07 11:20:05;;;;;;;2.10;1.50;;;;;;;17.84;48.54;97555.20;213237;1277;140677;-70
2022/04/07 11:25:09;;;;;;;2.30;1.80;;;;;;;17.67;49.13;97546.83;214650;1277;140152;-68
2022/04/07 11:30:14;;;;;;;3.10;1.50;;;;;;;17.60;49.29;97535.88;214077;1277;141063;-70
2022/04/07 11:35:18;;;;;;;3.10;1.50;;;;;;;17.76;49.41;97516.66;214124;1277;140270;-67
2022/04/07 11:40:20;;;;;;;1.50;1.40;;;;;;;17.99;49.61;97505.21;213183;1277;139603;-72
2022/04/07 11:45:30;;;;;;;2.50;1.40;;;;;;;18.06;49.21;97504.20;213355;1277;140188;-71
2022/04/07 11:50:34;;;;;;;2.00;1.70;;;;;;;18.29;49.13;97504.70;213450;1277;141755;-69
2022/04/07 11:55:37;;;;;;;1.20;1.10;;;;;;;18.44;48.70;97485.96;212623;1277;140882;-68
2022/04/07 12:00:39;;;;;;;1.20;0.90;;;;;;;18.26;48.61;97487.25;213549;1277;140006;-69
2022/04/07 12:05:45;;;;;;;1.30;1.20;;;;;;;18.01;48.53;97490.89;213726;1277;140943;-70
2022/04/07 12:10:48;;;;;;;1.10;0.80;;;;;;;17.99;48.64;97485.36;212947;1279;139987;-69
2022/04/07 12:15:51;;;;;;;0.80;0.80;;;;;;;17.94;48.63;97473.17;213800;1277;140000;-69
2022/04/07 12:21:02;;;;;;;2.60;1.20;;;;;;;17.91;48.08;97467.17;214297;1277;139929;-69
2022/04/07 12:26:06;;;;;;;3.60;1.30;;;;;;;17.64;47.93;97466.12;215043;1277;141149;-70
2022/04/07 12:31:22;;;;;;;0.90;0.80;;;;;;;17.85;48.36;97453.02;214977;1277;140165;-70
2022/04/07 12:36:28;;;;;;;0.50;0.50;;;;;;;18.15;48.03;97445.17;215576;1277;141737;-67
2022/04/07 12:42:04;;;;;;;0.70;0.70;;;;;;;17.96;46.94;97426.41;215382;1277;140297;-70
2022/04/07 12:47:15;;;;;;;1.10;0.80;;;;;;;17.92;47.28;97420.98;215519;1277;140455;-68
2022/04/07 12:52:19;;;;;;;1.10;1.00;;;;;;;18.07;47.09;97402.12;215389;1277;139577;-69
2022/04/07 12:57:29;;;;;;;1.30;1.00;;;;;;;18.24;46.51;97384.36;215340;1277;140694;-69
2022/04/07 13:02:54;;;;;;;0.40;0.40;;;;;;;18.30;46.10;97371.49;212824;1277;142245;-71
2022/04/07 13:07:59;;;;;;;0.80;0.70;;;;;;;18.46;45.88;97363.69;213445;1277;140384;-70
2022/04/07 13:13:01;;;;;;;1.20;1.10;;;;;;;18.55;45.69;97351.38;213848;1277;139598;-71
2022/04/07 13:18:05;;;;;;;4.10;1.00;;;;;;;18.29;45.40;97340.41;214160;1277;139949;-69
2022/04/07 13:23:07;;;;;;;1.00;1.00;;;;;;;18.19;45.50;97328.05;213082;1277;140875;-68
2022/04/07 13:28:10;;;;;;;1.00;1.00;;;;;;;18.06;45.74;97311.03;213627;1275;139549;-70
2022/04/07 13:33:12;;;;;;;4.70;1.50;;;;;;;18.05;46.16;97308.84;213910;1279;139723;-70
2022/04/07 13:38:22;;;;;;;1.00;0.90;;;;;;;18.23;45.71;97289.88;212946;1277;142347;-67
2022/04/07 13:43:28;;;;;;;0.90;0.60;;;;;;;18.17;45.50;97269.96;213848;1277;142009;-72
2022/04/07 13:48:30;;;;;;;2.00;0.80;;;;;;;17.75;45.13;97247.02;213673;1279;140018;-70
2022/04/07 13:53:32;;;;;;;1.20;0.70;;;;;;;17.67;45.60;97245.63;213376;1277;142943;-72
2022/04/07 13:58:35;;;;;;;1.90;1.20;;;;;;;17.66;45.40;97230.38;212956;1277;140466;-72
2022/04/07 14:03:40;;;;;;;1.40;0.90;;;;;;;17.54;45.55;97229.27;212972;1279;140372;-70
2022/04/07 14:08:45;;;;;;;2.70;1.00;;;;;;;17.39;45.58;97220.92;212554;1277;160779;-71
2022/04/07 14:13:48;;;;;;;0.70;0.70;;;;;;;17.15;45.03;97217.37;213836;1277;142539;-68
2022/04/07 14:18:55;;;;;;;4.50;1.00;;;;;;;16.92;44.79;97215.41;213299;1277;141432;-69
2022/04/07 14:23:57;;;;;;;5.70;0.70;;;;;;;16.83;44.93;97208.97;215020;1279;140600;-71
2022/04/07 14:29:00;;;;;;;1.60;0.60;;;;;;;16.94;44.95;97193.81;215021;1277;139919;-72
2022/04/07 14:34:03;;;;;;;0.60;0.60;;;;;;;17.04;44.91;97190.36;214743;1277;140271;-70
2022/04/07 14:39:07;;;;;;;1.90;0.60;;;;;;;17.16;44.73;97184.02;213398;1279;140009;-71
2022/04/07 14:44:11;;;;;;;4.20;1.30;;;;;;;17.27;44.47;97172.39;214794;1277;139304;-70
2022/04/07 14:49:14;;;;;;;7.50;1.20;;;;;;;17.33;44.32;97164.81;214966;1279;140063;-66
2022/04/07 14:54:35;;;;;;;18.30;1.30;;;;;;;17.27;43.76;97159.95;215558;1277;140773;-69
2022/04/07 14:59:38;;;;;;;8.80;1.80;;;;;;;17.41;43.89;97147.52;212755;1279;143086;-70
2022/04/07 15:04:41;;;;;;;1.10;0.90;;;;;;;17.54;43.68;97145.02;214989;1277;141822;-69
2022/04/07 15:09:44;;;;;;;2.20;0.70;;;;;;;17.47;43.19;97130.97;213838;1277;140654;-69
2022/04/07 15:14:46;;;;;;;6.60;1.20;;;;;;;17.36;43.21;97109.68;213731;1277;140874;-70
2022/04/07 15:19:48;;;;;;;3.10;1.00;;;;;;;17.22;43.10;97101.19;213885;1277;140066;-71
2022/04/07 15:24:51;;;;;;;6.20;1.40;;;;;;;16.93;42.92;97083.61;213294;1277;140762;-71
2022/04/07 15:29:56;;;;;;;3.60;1.30;;;;;;;16.65;43.28;97086.67;213237;1277;140827;-67
2022/04/07 15:34:58;;;;;;;4.80;0.90;;;;;;;16.43;43.40;97078.45;212947;1277;143496;-70
2022/04/07 15:40:04;;;;;;;8.50;0.90;;;;;;;16.24;43.82;97073.88;214003;1277;142197;-73
2022/04/07 15:45:11;;;;;;;6.30;1.50;;;;;;;16.12;44.14;97067.81;212764;1279;142251;-69
2022/04/07 15:50:15;;;;;;;;;;;;;;;15.98;44.06;97052.83;212992;1277;221247;-69
2022/04/07 15:55:18;;;;;;;2.20;1.00;;;;;;;15.82;44.31;97038.05;214596;1279;126808;-69
2022/04/07 16:00:22;;;;;;;2.10;0.90;;;;;;;15.73;44.38;97035.28;214191;1277;142161;-68
2022/04/07 16:05:26;;;;;;;1.70;1.00;;;;;;;15.64;44.43;97025.62;213921;1277;140921;-69
2022/04/07 16:10:29;;;;;;;2.10;1.20;;;;;;;15.59;44.52;97012.95;213680;1277;140570;-69
2022/04/07 16:15:32;;;;;;;3.30;1.10;;;;;;;15.57;44.40;97004.91;212996;1277;151349;-68
2022/04/07 16:20:36;;;;;;;0.90;0.80;;;;;;;15.54;44.52;96995.48;214440;1277;140123;-70
2022/04/07 16:25:40;;;;;;;1.80;1.10;;;;;;;15.52;44.50;96988.02;214493;1277;139733;-68
2022/04/07 16:38:27;;;;;;;0.90;0.80;;;;;;;15.37;44.66;96985.96;214117;1313;686175;-69
2022/04/07 16:43:31;;;;;;;3.70;1.40;;;;;;;15.20;44.86;96976.20;212398;1289;139792;-68
2022/04/07 16:48:35;;;;;;;2.90;1.40;;;;;;;15.12;45.11;96970.88;212421;1287;375529;-69
2022/04/07 16:53:38;;;;;;;1.70;1.30;;;;;;;15.03;45.29;96968.31;213728;1287;140200;-66
2022/04/07 16:58:41;;;;;;;0.90;0.80;;;;;;;14.96;45.58;96968.93;215879;1276;138927;-68
2022/04/07 17:03:45;;;;;;;2.50;2.10;;;;;;;14.89;45.53;96954.89;215930;1274;138876;-69
2022/04/07 17:08:50;;;;;;;3.00;2.30;;;;;;;14.78;46.17;96947.53;215112;1277;138774;-69
2022/04/07 17:13:56;;;;;;;7.00;2.00;;;;;;;14.69;46.80;96942.22;214572;1274;140839;-69
2022/04/07 17:19:00;;;;;;;4.20;2.30;;;;;;;14.61;47.56;96938.87;215274;1274;139562;-68
2022/04/07 17:24:04;;;;;;;3.00;1.60;;;;;;;14.55;47.91;96940.80;214765;1274;139136;-66
2022/04/07 17:29:08;;;;;;;3.20;1.70;;;;;;;14.49;48.25;96938.67;214435;1273;140192;-67
2022/04/07 17:34:11;;;;;;;3.80;2.00;;;;;;;14.44;47.98;96934.35;214760;1274;139604;-70
2022/04/07 17:39:14;;;;;;;7.00;1.70;;;;;;;14.39;47.84;96926.20;213398;1274;140006;-75
2022/04/07 17:44:16;;;;;;;4.40;1.20;;;;;;;14.36;47.94;96937.64;213580;1274;140539;-70
2022/04/07 17:49:20;;;;;;;2.30;0.80;;;;;;;14.31;47.93;96936.90;213915;1274;140140;-68
2022/04/07 17:54:23;;;;;;;1.40;1.30;;;;;;;14.22;48.13;96935.88;213506;1274;139715;-72
2022/04/07 17:59:26;;;;;;;2.60;1.20;;;;;;;14.15;48.53;96930.19;213421;1274;140392;-71
2022/04/07 18:04:29;;;;;;;5.40;0.90;;;;;;;14.03;48.90;96918.56;213086;1276;139821;-71
2022/04/07 18:09:31;;;;;;;0.60;0.60;;;;;;;13.88;49.26;96902.16;213860;1274;139828;-70
2022/04/07 18:14:34;;;;;;;3.50;1.90;;;;;;;13.78;49.46;96904.21;214119;1274;139687;-71
2022/04/07 18:19:37;;;;;;;1.80;1.00;;;;;;;13.73;49.65;96895.57;213290;1274;140877;-71
2022/04/07 18:24:43;;;;;;;1.90;1.10;;;;;;;13.69;49.92;96893.34;213801;1276;141027;-69
2022/04/07 18:29:47;;;;;;;2.10;0.60;;;;;;;13.66;50.07;96887.54;213410;1275;140323;-70
2022/04/07 18:34:50;;;;;;;1.10;0.80;;;;;;;13.61;50.17;96883.97;214622;1274;139663;-72
2022/04/07 18:39:53;;;;;;;0.70;0.70;;;;;;;13.57;50.60;96872.36;215308;1274;139123;-69
2022/04/07 18:44:58;;;;;;;2.90;1.30;;;;;;;13.53;50.74;96870.37;214397;1274;140691;-66
2022/04/07 18:50:04;;;;;;;0.70;0.70;;;;;;;13.47;51.34;96866.91;214618;1274;139318;-67
2022/04/07 18:55:10;;;;;;;2.40;0.90;;;;;;;13.39;51.91;96862.55;216119;1274;139335;-67
2022/04/07 19:00:14;;;;;;;1.40;1.00;;;;;;;13.29;52.34;96860.27;215672;1274;139106;-69
2022/04/07 19:05:17;;;;;;;3.40;1.70;;;;;;;13.22;52.86;96870.59;216057;1274;139235;-69
2022/04/07 19:10:19;;;;;;;3.00;1.60;;;;;;;13.09;53.65;96886.10;215738;1274;141362;-67
2022/04/07 19:15:23;;;;;;;1.70;0.90;;;;;;;12.92;54.37;96886.89;215223;1271;139410;-69
2022/04/07 19:20:26;;;;;;;2.70;1.40;;;;;;;12.67;55.68;96893.17;214549;1274;139558;-68
2022/04/07 19:25:29;;;;;;;1.60;1.40;;;;;;;12.45;56.76;96892.33;214413;1274;139838;-71
2022/04/07 19:30:31;;;;;;;4.20;1.60;;;;;;;12.29;57.34;96891.77;214447;1274;139662;-66
2022/04/07 19:35:34;;;;;;;2.40;1.80;;;;;;;12.13;58.49;96887.80;213218;1274;230972;-71
2022/04/07 19:40:38;;;;;;;3.50;1.50;;;;;;;11.96;59.50;96909.96;214741;1276;139714;-66
2022/04/07 19:45:41;;;;;;;3.70;1.60;;;;;;;11.81;60.17;96934.73;213982;1274;140516;-67
2022/04/07 19:50:43;;;;;;;3.50;1.80;;;;;;;11.70;61.14;96999.21;214151;1274;140583;-66
2022/04/07 19:55:49;;;;;;;2.10;1.10;;;;;;;11.40;61.69;97052.13;213688;1274;140665;-66
2022/04/07 20:00:51;;;;;;;1.80;1.00;;;;;;;10.87;61.98;97040.19;213561;1274;141069;-68
2022/04/07 20:05:54;;;;;;;1.10;0.80;;;;;;;10.53;62.91;97030.88;213247;1274;141535;-67
2022/04/07 20:10:58;;;;;;;0.70;0.70;;;;;;;10.25;63.27;97015.02;213359;1274;140348;-67
2022/04/07 20:16:01;;;;;;;2.90;0.80;;;;;;;9.99;63.78;97017.35;213254;1274;141032;-68
2022/04/07 20:21:04;;;;;;;1.70;0.80;;;;;;;9.77;64.33;97016.91;213105;1274;140288;-68
2022/04/07 20:26:10;;;;;;;1.10;1.00;;;;;;;9.53;64.93;97008.54;213632;1276;139080;-69
2022/04/07 20:31:13;;;;;;;1.80;1.40;;;;;;;9.34;65.63;96987.66;213958;1274;141404;-65
2022/04/07 20:36:17;;;;;;;2.70;1.20;;;;;;;9.18;66.01;96970.51;214430;1275;140046;-66
2022/04/07 20:41:19;;;;;;;1.80;0.80;;;;;;;9.06;66.88;96995.81;214810;1274;139405;-67
2022/04/07 20:46:24;;;;;;;2.30;0.90;;;;;;;8.99;67.12;96989.81;214128;1274;141695;-67
2022/04/07 20:51:27;;;;;;;3.20;1.30;;;;;;;8.96;67.79;96993.20;213831;1274;139819;-66
2022/04/07 20:56:31;;;;;;;1.10;0.60;;;;;;;8.97;68.14;96997.59;215636;1274;139870;-67
2022/04/07 21:01:33;;;;;;;0.90;0.70;;;;;;;9.01;68.71;97000.83;215977;1275;140159;-70
2022/04/07 21:06:36;;;;;;;1.20;0.90;;;;;;;9.05;68.69;96998.75;216261;1274;140446;-69
2022/04/07 21:11:39;;;;;;;8.40;1.60;;;;;;;9.07;69.03;96972.30;215216;1274;140281;-68
2022/04/07 21:16:45;;;;;;;1.00;0.70;;;;;;;9.04;69.50;96996.86;213646;1274;140262;-67
2022/04/07 21:21:48;;;;;;;2.00;0.90;;;;;;;9.01;69.64;97010.23;216053;1274;150287;-69
2022/04/07 21:26:52;;;;;;;1.40;0.90;;;;;;;8.98;69.74;97009.33;214060;1276;139869;-68
2022/04/07 21:31:54;;;;;;;3.00;0.70;;;;;;;8.92;70.01;97010.38;213292;1274;140338;-67
2022/04/07 21:36:58;;;;;;;0.50;0.50;;;;;;;8.90;70.31;97016.14;214198;1274;140904;-67
2022/04/07 21:42:01;;;;;;;4.10;1.20;;;;;;;8.89;70.51;96962.13;213699;1274;140507;-66
2022/04/07 21:47:04;;;;;;;1.00;0.70;;;;;;;8.90;70.63;96903.82;214327;1274;149971;-65
2022/04/07 21:52:08;;;;;;;1.90;1.00;;;;;;;8.90;70.67;96939.89;214750;1274;140231;-66
2022/04/07 21:57:11;;;;;;;0.80;0.80;;;;;;;8.87;70.65;96981.98;213400;1274;142015;-65
2022/04/07 22:02:14;;;;;;;1.70;1.10;;;;;;;8.77;70.46;96969.82;214164;1274;141418;-65
2022/04/07 22:07:18;;;;;;;1.00;0.90;;;;;;;8.66;70.60;96971.58;213886;1274;139329;-65
2022/04/07 22:12:24;;;;;;;2.20;1.00;;;;;;;8.56;70.82;97005.63;213286;1274;139603;-65
2022/04/07 22:17:29;;;;;;;2.10;1.10;;;;;;;8.49;70.95;97025.85;214515;1274;140330;-66
2022/04/07 22:22:33;;;;;;;0.90;0.80;;;;;;;8.44;71.19;97027.67;213891;1274;141597;-67
2022/04/07 22:27:35;;;;;;;0.70;0.70;;;;;;;8.45;71.65;97037.21;213900;1274;139475;-67
2022/04/07 22:32:48;;;;;;;1.20;1.10;;;;;;;8.49;71.52;97041.41;213727;1274;142332;-65
2022/04/07 22:37:53;;;;;;;1.00;0.90;;;;;;;8.50;71.63;97036.02;214019;1274;140729;-66
2022/04/07 22:42:57;;;;;;;2.60;1.30;;;;;;;8.50;71.87;97007.10;213579;1274;139287;-65
2022/04/07 22:48:00;;;;;;;2.10;0.80;;;;;;;8.49;72.17;97016.20;214070;1274;140457;-65
2022/04/07 22:53:04;;;;;;;0.90;0.70;;;;;;;8.48;72.23;97030.59;213991;1274;139846;-65
2022/04/07 22:58:06;;;;;;;1.70;1.40;;;;;;;8.49;72.37;97040.88;215342;1274;142995;-66
2022/04/07 23:03:09;;;;;;;1.50;1.30;;;;;;;8.48;72.23;97042.65;215740;1274;140517;-66
2022/04/07 23:08:12;;;;;;;1.40;1.30;;;;;;;8.51;72.59;97038.14;216084;1274;140312;-66
2022/04/07 23:13:17;;;;;;;1.90;0.90;;;;;;;8.55;72.07;97024.27;216294;1274;140531;-65
2022/04/07 23:18:19;;;;;;;2.40;1.90;;;;;;;8.58;72.47;97017.21;214677;1274;140813;-65
2022/04/07 23:23:22;;;;;;;4.20;1.70;;;;;;;8.55;72.25;97019.33;215983;1274;139245;-66
2022/04/07 23:34:33;;;;;;;3.60;1.70;;;;;;;8.54;71.67;97015.00;213992;1274;140005;-67
2022/04/07 23:39:35;;;;;;;2.20;1.40;;;;;;;8.51;71.38;97027.67;214683;1272;140895;-66